Time;durP1;ratioP1;P1;durP2;ratioP2;P2;SDS_P1;SDS_P2;PMS_P1;PMS_P2;Temp;Humidity;BMP_temperature;BMP_pressure;BME280_temperature;BME280_humidity;BME280_pressure;Samples;Min_cycle;Max_cycle;Signal;HPM_P1;HPM_P2
2023/01/02 00:01:07;;;;;;;12.82;4.80;;;;;;;11.10;100.00;100958.44;4973961;28;20468;-74
2023/01/02 00:03:34;;;;;;;11.25;5.20;;;;;;;11.14;100.00;100951.28;4973079;28;21214;-75
2023/01/02 00:06:05;;;;;;;14.20;5.28;;;;;;;11.17;100.00;100944.13;4974346;28;20058;-73
2023/01/02 00:08:33;;;;;;;12.27;5.40;;;;;;;11.21;100.00;100942.25;4974239;28;20043;-75
2023/01/02 00:11:00;;;;;;;10.23;4.97;;;;;;;11.22;100.00;100928.16;4977076;28;20039;-75
2023/01/02 00:13:27;;;;;;;11.43;5.40;;;;;;;11.24;100.00;100928.13;4976575;28;20047;-76
2023/01/02 00:15:54;;;;;;;16.98;4.97;;;;;;;11.25;100.00;100928.06;4972065;28;20095;-75
2023/01/02 00:18:21;;;;;;;14.18;5.80;;;;;;;11.26;100.00;100928.91;4972968;28;20540;-76
2023/01/02 00:20:49;;;;;;;15.40;5.07;;;;;;;11.27;100.00;100925.34;4974094;28;20063;-76
2023/01/02 00:23:17;;;;;;;12.63;4.93;;;;;;;11.29;100.00;100926.19;4973074;28;20043;-76
2023/01/02 00:25:44;;;;;;;10.82;4.70;;;;;;;11.29;100.00;100926.19;4973378;28;21026;-76
2023/01/02 00:28:11;;;;;;;12.40;4.80;;;;;;;11.30;100.00;100930.56;4972488;28;20039;-75
2023/01/02 00:30:40;;;;;;;12.00;4.95;;;;;;;11.32;100.00;100926.09;4972970;28;20379;-76
2023/01/02 00:33:07;;;;;;;10.20;5.07;;;;;;;11.34;100.00;100919.00;4973110;28;20050;-76
2023/01/02 00:35:37;;;;;;;11.45;4.93;;;;;;;11.36;100.00;100919.78;4974929;28;20046;-77
2023/01/02 00:38:05;;;;;;;12.65;5.28;;;;;;;11.36;100.00;100916.28;4971911;28;20055;-77
2023/01/02 00:40:33;;;;;;;9.95;5.25;;;;;;;11.35;100.00;100904.84;4972720;28;20043;-77
2023/01/02 00:43:00;;;;;;;10.45;5.25;;;;;;;11.33;100.00;100893.50;4971934;28;20059;-77
2023/01/02 00:45:28;;;;;;;14.18;5.15;;;;;;;11.33;100.00;100893.50;4967381;28;20074;-76
2023/01/02 00:47:55;;;;;;;15.43;5.90;;;;;;;11.31;100.00;100888.25;4972598;28;20039;-76
2023/01/02 00:50:22;;;;;;;16.55;5.65;;;;;;;11.32;100.00;100890.00;4971063;28;20036;-72
2023/01/02 00:52:50;;;;;;;11.00;4.97;;;;;;;11.33;100.00;100896.16;4973780;28;20054;-72
2023/01/02 00:55:17;;;;;;;12.18;5.22;;;;;;;11.31;100.00;100890.06;4971639;28;20833;-75
2023/01/02 00:57:44;;;;;;;14.40;5.00;;;;;;;11.33;100.00;100898.78;4972499;28;20049;-76
2023/01/02 01:00:12;;;;;;;11.50;5.13;;;;;;;11.33;100.00;100888.22;4973779;28;20035;-75
2023/01/02 01:02:47;;;;;;;12.18;5.43;;;;;;;11.33;100.00;100890.88;4971659;28;20051;-75
2023/01/02 01:05:15;;;;;;;12.15;5.35;;;;;;;11.32;100.00;100900.53;4971349;28;20074;-76
2023/01/02 01:07:42;;;;;;;11.38;6.00;;;;;;;11.32;100.00;100894.41;4973344;28;20050;-74
2023/01/02 01:10:09;;;;;;;16.73;5.90;;;;;;;11.31;100.00;100896.19;4968820;28;20109;-75
2023/01/02 01:12:36;;;;;;;11.05;5.30;;;;;;;11.31;100.00;100888.25;4973205;28;20045;-75
2023/01/02 01:15:05;;;;;;;7.75;5.00;;;;;;;11.31;100.00;100888.25;4971194;28;20051;-75
2023/01/02 01:17:33;;;;;;;14.63;5.63;;;;;;;11.32;100.00;100878.59;4972761;28;20049;-75
2023/01/02 01:20:00;;;;;;;12.43;5.95;;;;;;;11.31;100.00;100879.50;4966436;28;20130;-75
2023/01/02 01:22:27;;;;;;;12.57;5.47;;;;;;;11.30;100.00;100870.69;4973153;28;20086;-73
2023/01/02 01:24:54;;;;;;;14.60;5.30;;;;;;;11.31;100.00;100877.72;4971942;28;20058;-73
2023/01/02 01:27:21;;;;;;;12.70;5.70;;;;;;;11.30;100.00;100872.50;4971286;28;20039;-73
2023/01/02 01:29:48;;;;;;;11.05;6.15;;;;;;;11.31;100.00;100871.56;4970403;28;20099;-72
2023/01/02 01:32:16;;;;;;;16.15;5.68;;;;;;;11.31;100.00;100871.56;4973074;28;20039;-70
2023/01/02 01:34:44;;;;;;;14.13;5.55;;;;;;;11.33;100.00;100878.53;4971482;28;20040;-69
2023/01/02 01:37:11;;;;;;;13.07;4.68;;;;;;;11.34;100.00;100866.22;4971769;28;20050;-69
2023/01/02 01:39:38;;;;;;;12.77;5.15;;;;;;;11.35;100.00;100870.53;4971154;28;20465;-69
2023/01/02 01:42:11;;;;;;;11.27;5.25;;;;;;;11.36;100.00;100877.56;4958848;28;20071;-69
2023/01/02 01:44:45;;;;;;;13.60;4.55;;;;;;;11.38;100.00;100872.25;4967652;28;20076;-72
2023/01/02 01:47:43;;;;;;;13.68;4.85;;;;;;;11.39;100.00;100874.81;4972196;28;20054;-73
2023/01/02 01:50:20;;;;;;;10.77;4.70;;;;;;;11.41;100.00;100880.91;4967832;28;20034;-74
2023/01/02 01:52:58;;;;;;;10.45;4.20;;;;;;;11.44;100.00;100870.28;4972032;28;20047;-77
2023/01/02 01:55:33;;;;;;;10.50;4.13;;;;;;;11.48;100.00;100879.78;4971748;28;20043;-77
2023/01/02 01:58:12;;;;;;;9.50;4.00;;;;;;;11.53;100.00;100884.06;4972833;28;20047;-76
2023/01/02 02:00:41;;;;;;;7.00;3.58;;;;;;;11.60;100.00;100890.84;4972303;28;20039;-77
2023/01/02 02:03:19;;;;;;;9.15;3.72;;;;;;;11.66;100.00;100885.34;4971616;28;20051;-72
2023/01/02 02:05:47;;;;;;;14.55;3.83;;;;;;;11.71;100.00;100883.44;4969973;28;20134;-72
2023/01/02 02:08:36;;;;;;;8.65;3.83;;;;;;;11.78;100.00;100882.28;4971466;28;20042;-72
2023/01/02 02:11:04;;;;;;;9.32;3.40;;;;;;;11.85;100.00;100879.47;4970567;28;20055;-72
2023/01/02 02:13:33;;;;;;;10.77;3.50;;;;;;;11.91;99.97;100889.81;4972664;28;20040;-73
2023/01/02 02:16:22;;;;;;;11.18;2.92;;;;;;;11.95;99.88;100887.00;4970766;28;20513;-72
2023/01/02 02:18:56;;;;;;;9.95;3.50;;;;;;;11.97;100.00;100879.00;4970990;28;20079;-72
2023/01/02 02:21:52;;;;;;;7.60;3.15;;;;;;;12.02;99.94;100884.16;4969819;28;20050;-72
2023/01/02 02:24:29;;;;;;;9.02;3.13;;;;;;;12.03;100.00;100881.47;4954337;28;20102;-72
2023/01/02 02:27:23;;;;;;;11.63;3.33;;;;;;;12.06;100.00;100889.28;4967819;28;20485;-72
2023/01/02 02:30:03;;;;;;;8.68;3.20;;;;;;;12.06;99.97;100885.78;4971004;28;20043;-72
2023/01/02 02:32:36;;;;;;;9.05;3.33;;;;;;;12.08;100.00;100884.81;4973134;28;20075;-72
2023/01/02 02:35:36;;;;;;;11.38;3.35;;;;;;;12.10;99.51;100879.50;4965719;28;20051;-72
2023/01/02 02:38:06;;;;;;;9.40;3.00;;;;;;;12.09;99.98;100881.25;4969656;28;20535;-73
2023/01/02 02:40:48;;;;;;;8.23;3.30;;;;;;;12.09;100.00;100883.03;4971626;28;20044;-73
2023/01/02 02:43:56;;;;;;;7.95;3.20;;;;;;;12.12;100.00;100880.28;4971077;28;20058;-73
2023/01/02 02:46:39;;;;;;;8.32;3.50;;;;;;;12.11;100.00;100884.69;4971345;28;20437;-72
2023/01/02 02:49:29;;;;;;;5.60;3.00;;;;;;;12.14;100.00;100888.16;4965287;28;20046;-72
2023/01/02 02:52:28;;;;;;;7.07;3.13;;;;;;;12.13;100.00;100874.06;4971165;28;20084;-72
2023/01/02 02:55:11;;;;;;;10.20;3.15;;;;;;;12.14;100.00;100880.22;4970269;28;20050;-73
2023/01/02 02:57:41;;;;;;;9.43;3.50;;;;;;;12.09;100.00;100870.69;4972883;28;20126;-74
2023/01/02 03:00:14;;;;;;;10.07;3.45;;;;;;;12.08;100.00;100876.88;4964701;28;20055;-74
2023/01/02 03:02:41;;;;;;;9.87;3.20;;;;;;;12.08;100.00;100882.16;4975987;28;20051;-75
2023/01/02 03:05:33;;;;;;;6.40;3.30;;;;;;;12.08;100.00;100878.66;4974961;28;20988;-74
2023/01/02 03:08:15;;;;;;;12.48;3.47;;;;;;;12.10;100.00;100884.78;4975536;28;20039;-73
2023/01/02 03:10:56;;;;;;;9.88;3.30;;;;;;;12.09;100.00;100878.59;4975337;28;20054;-72
2023/01/02 03:14:02;;;;;;;12.20;3.40;;;;;;;12.09;100.00;100877.75;4974788;28;20046;-72
2023/01/02 03:16:42;;;;;;;11.75;3.38;;;;;;;12.08;100.00;100876.88;4975339;28;20051;-72
2023/01/02 03:19:41;;;;;;;8.65;3.05;;;;;;;12.07;100.00;100880.44;4970844;28;20135;-72
2023/01/02 03:22:18;;;;;;;5.68;3.17;;;;;;;12.07;100.00;100888.34;4975916;28;20091;-72
2023/01/02 03:24:50;;;;;;;8.07;3.60;;;;;;;12.05;100.00;100882.28;4966821;28;20528;-73
2023/01/02 03:27:26;;;;;;;8.77;2.88;;;;;;;12.02;100.00;100882.41;4975187;28;20047;-74
2023/01/02 03:30:04;;;;;;;13.77;4.13;;;;;;;12.05;100.00;100889.34;4974119;28;20074;-73
2023/01/02 03:32:44;;;;;;;13.00;4.22;;;;;;;12.05;100.00;100882.28;4967948;28;20122;-72
2023/01/02 03:35:18;;;;;;;11.07;3.40;;;;;;;12.04;100.00;100867.34;4973375;28;20111;-72
2023/01/02 03:37:53;;;;;;;10.73;4.35;;;;;;;12.03;100.00;100865.63;4975105;28;20042;-72
2023/01/02 03:40:31;;;;;;;10.95;3.60;;;;;;;12.01;100.00;100866.56;4974901;28;20054;-72
2023/01/02 03:43:10;;;;;;;11.40;3.58;;;;;;;12.03;100.00;100864.75;4975206;28;20087;-75
2023/01/02 03:45:52;;;;;;;9.57;3.30;;;;;;;12.03;100.00;100872.69;4974558;28;20050;-76
2023/01/02 03:48:38;;;;;;;8.45;2.88;;;;;;;12.02;99.96;100874.47;4973408;28;20470;-76
2023/01/02 03:51:06;;;;;;;12.38;3.33;;;;;;;12.03;100.00;100878.84;4974898;28;20524;-76
2023/01/02 03:53:36;;;;;;;12.52;3.58;;;;;;;12.02;100.00;100881.50;4973402;28;20118;-76
2023/01/02 03:56:23;;;;;;;9.85;3.15;;;;;;;12.04;100.00;100888.50;4971061;28;20500;-75
2023/01/02 03:59:03;;;;;;;10.52;3.35;;;;;;;12.04;100.00;100891.13;4974252;28;20121;-76
2023/01/02 04:01:52;;;;;;;12.07;3.90;;;;;;;12.08;100.00;100898.00;4973115;28;20501;-76
2023/01/02 04:04:48;;;;;;;13.57;3.65;;;;;;;12.09;100.00;100896.25;4973244;28;20150;-77
2023/01/02 04:07:56;;;;;;;10.93;3.03;;;;;;;12.11;100.00;100899.69;4974913;28;20054;-77
2023/01/02 04:10:27;;;;;;;10.43;3.60;;;;;;;12.11;100.00;100894.41;4969511;28;20047;-76
2023/01/02 04:13:04;;;;;;;7.68;3.30;;;;;;;12.15;100.00;100903.09;4973737;28;20048;-76
2023/01/02 04:15:35;;;;;;;8.80;2.88;;;;;;;12.14;99.73;100890.81;4970943;28;20055;-74
2023/01/02 04:18:15;;;;;;;10.45;3.08;;;;;;;12.15;99.88;100892.53;4975139;28;20497;-76
2023/01/02 04:20:48;;;;;;;8.80;3.53;;;;;;;12.15;99.76;100897.81;4970249;28;20408;-75
2023/01/02 04:23:25;;;;;;;8.40;2.85;;;;;;;12.13;99.80;100903.13;4972902;28;20086;-75
2023/01/02 04:26:14;;;;;;;8.98;2.95;;;;;;;12.13;99.77;100905.78;4972489;28;20043;-77
2023/01/02 04:28:42;;;;;;;9.82;2.92;;;;;;;12.11;99.70;100907.59;4973938;28;20043;-75
2023/01/02 04:31:17;;;;;;;9.18;3.00;;;;;;;12.11;99.85;100910.25;4973124;28;20051;-75
2023/01/02 04:33:55;;;;;;;7.60;3.08;;;;;;;12.13;99.87;100915.50;4971634;28;20047;-75
2023/01/02 04:36:23;;;;;;;12.70;3.17;;;;;;;12.14;99.86;100912.78;4972849;28;20052;-77
2023/01/02 04:38:51;;;;;;;6.70;2.78;;;;;;;12.14;99.85;100911.94;4972381;28;20035;-76
2023/01/02 04:41:26;;;;;;;8.80;3.00;;;;;;;12.14;100.00;100920.72;4971580;28;20074;-76
2023/01/02 04:43:55;;;;;;;8.85;2.95;;;;;;;12.15;100.00;100911.03;4971019;28;20047;-76
2023/01/02 04:46:26;;;;;;;10.52;2.97;;;;;;;12.14;99.92;100915.44;4972762;28;20565;-73
2023/01/02 04:48:55;;;;;;;9.68;3.40;;;;;;;12.16;99.79;100915.41;4972552;28;20504;-72
2023/01/02 04:51:23;;;;;;;8.48;3.25;;;;;;;12.13;99.84;100913.72;4972164;28;20039;-72
2023/01/02 04:53:54;;;;;;;9.88;3.35;;;;;;;12.14;99.64;100919.88;4967237;28;20043;-72
2023/01/02 04:56:21;;;;;;;8.95;3.10;;;;;;;12.10;99.83;100919.13;4972132;28;20086;-72
2023/01/02 04:58:49;;;;;;;7.53;3.20;;;;;;;12.10;99.79;100919.13;4973531;28;20075;-73
2023/01/02 05:01:19;;;;;;;9.27;2.70;;;;;;;12.11;99.90;100921.69;4971904;28;20503;-74
2023/01/02 05:03:51;;;;;;;11.07;2.95;;;;;;;12.09;99.73;100912.97;4972399;28;20043;-74
2023/01/02 05:06:18;;;;;;;9.68;3.00;;;;;;;12.09;99.95;100918.25;4972274;28;20063;-74
2023/01/02 05:08:46;;;;;;;8.75;3.30;;;;;;;12.10;99.86;100917.34;4973167;28;20505;-74
2023/01/02 05:11:17;;;;;;;9.38;3.22;;;;;;;12.10;99.81;100927.91;4971312;28;20054;-75
2023/01/02 05:13:44;;;;;;;7.47;3.00;;;;;;;12.09;99.87;100930.59;4973740;28;20050;-76
2023/01/02 05:16:12;;;;;;;7.15;2.55;;;;;;;12.11;99.94;100934.03;4971858;28;20040;-75
2023/01/02 05:18:39;;;;;;;7.10;2.70;;;;;;;12.10;99.77;100933.19;4971606;28;20039;-75
2023/01/02 05:24:00;;;;;;;7.25;2.75;;;;;;;12.12;99.50;100938.41;4973552;28;20035;-76
2023/01/02 05:26:32;;;;;;;8.40;2.80;;;;;;;12.14;99.33;100933.09;4973826;28;20046;-76
2023/01/02 05:29:00;;;;;;;6.32;2.50;;;;;;;12.15;99.17;100937.47;4974089;28;20046;-75
2023/01/02 05:31:28;;;;;;;10.27;2.70;;;;;;;12.18;99.15;100943.50;4974653;28;20055;-76
2023/01/02 05:33:58;;;;;;;10.50;2.88;;;;;;;12.18;98.84;100945.25;4971277;28;20040;-75
2023/01/02 05:36:26;;;;;;;5.05;2.28;;;;;;;12.21;98.74;100951.28;4972373;28;20062;-75
2023/01/02 05:38:54;;;;;;;8.15;2.55;;;;;;;12.22;98.70;100954.81;4980880;28;20046;-75
2023/01/02 05:41:22;;;;;;;8.50;3.22;;;;;;;12.23;98.43;100949.47;4972458;28;20051;-75
2023/01/02 05:43:50;;;;;;;7.18;2.10;;;;;;;12.24;98.25;100950.34;4972933;28;20535;-75
2023/01/02 05:46:19;;;;;;;7.50;2.55;;;;;;;12.22;98.11;100954.81;4972410;28;20035;-75
2023/01/02 05:48:47;;;;;;;8.13;2.70;;;;;;;12.21;98.14;100955.72;4971323;28;20532;-74
2023/01/02 05:51:19;;;;;;;7.68;2.63;;;;;;;12.23;98.22;100959.19;4972823;28;20123;-74
2023/01/02 05:53:46;;;;;;;6.47;2.70;;;;;;;12.23;98.27;100962.69;4971459;28;20055;-74
2023/01/02 05:56:16;;;;;;;10.35;2.80;;;;;;;12.25;98.19;100965.28;4955175;28;20106;-74
2023/01/02 05:58:48;;;;;;;6.00;2.47;;;;;;;12.29;98.14;100964.25;4970839;28;20250;-76
2023/01/02 06:01:26;;;;;;;6.85;2.30;;;;;;;12.29;97.99;100966.88;4971170;28;20047;-76
2023/01/02 06:03:57;;;;;;;6.30;2.67;;;;;;;12.30;97.93;100970.41;4970999;28;20995;-77
2023/01/02 06:06:32;;;;;;;4.25;2.25;;;;;;;12.30;97.97;100965.97;4972611;28;20150;-74
2023/01/02 06:09:01;;;;;;;9.95;2.30;;;;;;;12.30;97.64;100975.69;4971480;28;20039;-74
2023/01/02 06:11:29;;;;;;;7.72;2.10;;;;;;;12.30;97.47;100965.97;4971103;28;20043;-74
2023/01/02 06:13:56;;;;;;;8.57;2.20;;;;;;;12.30;97.62;100971.25;4960850;28;20049;-74
2023/01/02 06:16:24;;;;;;;5.95;2.28;;;;;;;12.30;97.42;100968.63;4970722;28;20044;-74
2023/01/02 06:18:52;;;;;;;5.90;2.72;;;;;;;12.29;97.33;100973.97;4971756;28;20043;-74
2023/01/02 06:21:20;;;;;;;6.03;2.40;;;;;;;12.29;97.14;100977.47;4972102;28;20047;-74
2023/01/02 06:23:54;;;;;;;7.75;2.28;;;;;;;12.27;97.41;100982.81;4971273;28;20059;-75
2023/01/02 06:26:23;;;;;;;8.45;2.25;;;;;;;12.30;96.90;100984.47;4974867;28;20043;-74
2023/01/02 06:28:56;;;;;;;7.15;2.40;;;;;;;12.29;96.86;100981.91;4971726;28;20051;-74
2023/01/02 06:31:28;;;;;;;10.40;2.67;;;;;;;12.29;96.76;100992.47;4976580;28;20044;-75
2023/01/02 06:33:58;;;;;;;7.82;2.28;;;;;;;12.27;96.64;101003.06;4976930;28;20048;-75
2023/01/02 06:36:30;;;;;;;6.53;2.38;;;;;;;12.27;96.91;101005.72;4976144;28;20040;-75
2023/01/02 06:38:57;;;;;;;5.72;2.08;;;;;;;12.27;96.90;101003.97;4977106;28;20043;-74
2023/01/02 06:41:25;;;;;;;5.13;2.10;;;;;;;12.27;96.76;101005.72;4977843;28;20508;-73
2023/01/02 06:43:53;;;;;;;7.88;2.60;;;;;;;12.26;97.07;101010.16;4970141;28;20102;-75
2023/01/02 06:46:22;;;;;;;7.13;2.30;;;;;;;12.36;97.58;101015.97;4973325;28;20134;-75
2023/01/02 06:48:50;;;;;;;5.60;2.25;;;;;;;12.43;97.22;101017.50;4973910;28;20134;-76
2023/01/02 06:51:21;;;;;;;6.30;2.10;;;;;;;12.47;97.33;101015.63;4980453;28;20150;-74
2023/01/02 06:53:49;;;;;;;6.10;2.50;;;;;;;12.56;97.50;101025.84;4977043;28;20114;-72
2023/01/02 06:56:19;;;;;;;6.03;2.42;;;;;;;12.61;97.26;101024.84;4975357;28;20032;-72
2023/01/02 06:58:46;;;;;;;4.50;2.40;;;;;;;12.62;97.26;101027.44;4974177;28;20043;-71
2023/01/02 07:01:18;;;;;;;6.18;2.25;;;;;;;12.63;97.28;101033.56;4974311;28;20051;-72
2023/01/02 07:03:45;;;;;;;5.63;1.98;;;;;;;12.63;96.99;101042.38;4975447;28;20070;-71
2023/01/02 07:06:16;;;;;;;7.70;2.33;;;;;;;12.64;96.70;101049.41;4974679;28;20586;-71
2023/01/02 07:08:44;;;;;;;6.25;2.28;;;;;;;12.63;96.73;101078.53;4973579;28;20526;-71
2023/01/02 07:11:19;;;;;;;5.75;1.10;;;;;;;12.53;91.60;101118.50;4985865;28;20042;-69
2023/01/02 07:13:49;;;;;;;1.60;0.50;;;;;;;12.01;88.69;101120.22;4976001;28;20049;-69
2023/01/02 07:16:19;;;;;;;2.22;0.70;;;;;;;11.57;90.28;101126.81;4973452;28;20432;-70
2023/01/02 07:18:47;;;;;;;1.02;0.50;;;;;;;11.26;91.80;101138.28;4975579;28;20043;-69
2023/01/02 07:21:17;;;;;;;1.35;0.50;;;;;;;11.03;91.91;101150.31;4973639;28;20047;-68
2023/01/02 07:23:45;;;;;;;0.93;0.40;;;;;;;10.83;92.60;101147.38;4976053;28;20047;-69
2023/01/02 07:26:13;;;;;;;0.85;0.50;;;;;;;10.64;93.48;101161.03;4968855;28;20153;-68
2023/01/02 07:28:40;;;;;;;1.02;0.50;;;;;;;10.49;94.09;101171.94;4971868;28;20461;-68
2023/01/02 07:31:14;;;;;;;2.28;0.45;;;;;;;10.38;95.21;101170.44;4970927;28;20047;-68
2023/01/02 07:33:42;;;;;;;1.00;0.60;;;;;;;10.30;95.31;101171.50;4968558;28;20442;-68
2023/01/02 07:36:16;;;;;;;1.38;0.90;;;;;;;10.20;96.02;101178.75;4967673;28;20505;-69
2023/01/02 07:38:44;;;;;;;1.65;0.93;;;;;;;10.16;96.72;101198.19;4967948;28;20047;-69
2023/01/02 07:41:17;;;;;;;3.83;0.95;;;;;;;10.11;96.93;101198.28;4966307;28;20513;-71
2023/01/02 07:43:46;;;;;;;1.00;0.88;;;;;;;10.08;97.23;101208.88;4971371;28;20049;-69
2023/01/02 07:46:17;;;;;;;1.25;0.82;;;;;;;10.02;97.29;101222.22;4972614;28;20532;-69
2023/01/02 07:48:45;;;;;;;1.33;0.80;;;;;;;9.97;97.40;101227.53;4973511;28;20044;-69
2023/01/02 07:51:15;;;;;;;0.98;0.65;;;;;;;9.91;97.75;101233.84;4972120;28;20079;-69
2023/01/02 07:53:53;;;;;;;0.60;0.57;;;;;;;9.87;98.06;101241.84;4972597;28;20047;-69
2023/01/02 07:56:24;;;;;;;2.50;1.15;;;;;;;9.84;97.94;101248.00;4973443;28;20071;-71
2023/01/02 07:58:51;;;;;;;1.40;0.77;;;;;;;9.85;98.10;101246.25;4972656;28;20058;-70
2023/01/02 08:01:18;;;;;;;1.58;0.93;;;;;;;9.84;98.13;101258.53;4971073;28;20091;-71
2023/01/02 08:03:45;;;;;;;2.40;1.48;;;;;;;9.83;98.05;101259.44;4971208;28;20042;-71
2023/01/02 08:06:16;;;;;;;2.38;1.50;;;;;;;9.81;98.36;101261.25;4972569;28;20051;-71
2023/01/02 08:08:47;;;;;;;3.67;2.30;;;;;;;9.85;98.41;101272.59;4969806;28;20118;-71
2023/01/02 08:11:21;;;;;;;4.28;2.28;;;;;;;9.84;98.36;101284.88;4961922;28;20039;-72
2023/01/02 08:13:48;;;;;;;2.45;2.00;;;;;;;9.82;98.26;101286.66;4974683;28;20043;-74
2023/01/02 08:16:21;;;;;;;2.72;2.40;;;;;;;9.79;98.29;101295.50;4966330;28;20531;-72
2023/01/02 08:18:54;;;;;;;3.28;2.50;;;;;;;9.76;98.48;101303.50;4974801;28;20046;-73
2023/01/02 08:21:25;;;;;;;5.75;5.25;;;;;;;9.77;98.74;101305.19;4973404;28;20956;-74
2023/01/02 08:23:52;;;;;;;4.63;4.03;;;;;;;9.77;98.63;101310.47;4974921;28;20039;-73
2023/01/02 08:26:20;;;;;;;4.85;4.05;;;;;;;9.77;98.91;101317.50;4971065;28;20079;-74
2023/01/02 08:28:47;;;;;;;5.05;4.13;;;;;;;9.79;98.69;101318.34;4974571;28;20046;-73
2023/01/02 08:31:20;;;;;;;4.30;3.72;;;;;;;9.80;98.67;101328.00;4971240;28;20069;-72
2023/01/02 08:33:48;;;;;;;4.20;3.80;;;;;;;9.81;98.55;101332.34;4973169;28;20040;-74
2023/01/02 08:36:17;;;;;;;5.10;3.42;;;;;;;9.82;98.42;101347.22;4970330;28;20054;-73
2023/01/02 08:38:45;;;;;;;4.15;3.72;;;;;;;9.81;98.44;101340.25;4972146;28;20047;-75
2023/01/02 08:41:14;;;;;;;4.22;3.42;;;;;;;9.82;98.62;101349.00;4969436;28;20049;-73
2023/01/02 08:43:41;;;;;;;4.65;3.78;;;;;;;9.84;98.77;101344.59;4972772;28;20044;-73
2023/01/02 08:46:09;;;;;;;4.18;3.53;;;;;;;9.85;99.04;101348.97;4972524;28;20520;-75
2023/01/02 08:48:36;;;;;;;5.30;4.03;;;;;;;9.85;99.31;101362.13;4974037;28;20051;-71
2023/01/02 08:51:04;;;;;;;4.82;3.90;;;;;;;9.85;99.28;101368.25;4969924;28;20072;-72
2023/01/02 08:53:31;;;;;;;5.35;4.13;;;;;;;9.85;99.74;101376.16;4968070;28;20143;-74
2023/01/02 08:56:26;;;;;;;5.95;3.90;;;;;;;9.87;99.27;101386.69;4968770;28;20094;-73
2023/01/02 08:58:56;;;;;;;5.03;3.80;;;;;;;9.82;98.88;101384.09;4968386;28;20063;-75
2023/01/02 09:01:29;;;;;;;5.35;3.47;;;;;;;9.80;99.23;101383.28;4972672;28;20556;-76
2023/01/02 09:03:57;;;;;;;5.72;3.83;;;;;;;9.79;99.28;101378.91;4963680;28;20049;-74
2023/01/02 09:06:27;;;;;;;5.00;3.60;;;;;;;9.80;98.65;101388.56;4965019;28;20134;-72
2023/01/02 09:08:56;;;;;;;4.45;3.40;;;;;;;9.77;98.92;101393.88;4971003;28;20114;-76
2023/01/02 09:11:32;;;;;;;5.65;3.40;;;;;;;9.72;98.31;101396.59;4972323;28;20047;-76
2023/01/02 09:14:01;;;;;;;3.92;2.83;;;;;;;9.69;98.54;101411.56;4973499;28;20568;-74
2023/01/02 09:16:29;;;;;;;3.85;2.97;;;;;;;9.63;98.09;101413.41;4970343;28;20456;-72
2023/01/02 09:18:59;;;;;;;5.07;3.22;;;;;;;9.58;98.60;101420.53;4975062;28;20504;-74
2023/01/02 09:21:28;;;;;;;4.28;3.50;;;;;;;9.60;99.44;101418.72;4973628;28;20579;-73
2023/01/02 09:23:55;;;;;;;4.07;3.58;;;;;;;9.62;98.93;101429.22;4976363;28;20043;-73
2023/01/02 09:26:22;;;;;;;4.65;3.13;;;;;;;9.61;98.78;101433.59;4972539;28;20122;-74
2023/01/02 09:28:50;;;;;;;5.90;3.60;;;;;;;9.59;98.87;101430.16;4971691;28;20039;-74
2023/01/02 09:31:18;;;;;;;5.50;3.95;;;;;;;9.61;98.84;101440.66;4968020;28;20043;-73
2023/01/02 09:33:46;;;;;;;4.05;3.25;;;;;;;9.60;98.60;101444.19;4977053;28;20038;-75
2023/01/02 09:36:20;;;;;;;4.50;3.30;;;;;;;9.58;97.89;101449.47;4972623;28;20075;-74
2023/01/02 09:38:57;;;;;;;4.05;2.75;;;;;;;9.57;97.24;101457.38;4972402;28;20122;-74
2023/01/02 09:41:30;;;;;;;2.88;2.33;;;;;;;9.55;97.00;101473.22;4966530;28;21040;-75
2023/01/02 09:44:23;;;;;;;2.47;2.20;;;;;;;9.50;96.03;101476.81;4970148;28;20090;-75
2023/01/02 09:47:02;;;;;;;3.55;2.67;;;;;;;9.51;95.86;101483.81;4966695;28;20040;-75
2023/01/02 09:49:53;;;;;;;3.38;2.47;;;;;;;9.55;96.52;101490.78;4978938;28;20050;-75
2023/01/02 09:52:36;;;;;;;4.18;2.92;;;;;;;9.52;96.31;101496.94;4971329;28;20123;-74
2023/01/02 09:55:18;;;;;;;3.22;2.65;;;;;;;9.59;96.92;101508.25;4985497;28;20039;-75
2023/01/02 09:57:50;;;;;;;6.05;3.38;;;;;;;9.62;97.38;101510.84;4977301;28;20039;-74
2023/01/02 10:00:23;;;;;;;4.57;3.28;;;;;;;9.71;97.06;101515.09;4974921;28;20051;-74
2023/01/02 10:03:21;;;;;;;3.88;3.28;;;;;;;9.77;96.47;101509.72;4976209;28;20047;-75
2023/01/02 10:06:20;;;;;;;4.85;3.40;;;;;;;9.90;96.30;101508.63;4948516;28;20065;-76
2023/01/02 10:09:00;;;;;;;10.32;7.05;;;;;;;10.01;94.51;101495.28;4975655;28;20054;-75
2023/01/02 10:11:43;;;;;;;4.90;3.50;;;;;;;10.10;95.17;101496.88;4972520;28;20039;-74
2023/01/02 10:14:41;;;;;;;4.85;3.85;;;;;;;10.25;95.33;101493.09;4963326;28;20122;-75
2023/01/02 10:17:16;;;;;;;3.58;3.00;;;;;;;10.36;94.65;101501.69;4971977;28;20052;-74
2023/01/02 10:20:00;;;;;;;4.05;2.90;;;;;;;10.38;92.39;101505.16;4977007;28;20520;-77
2023/01/02 10:22:48;;;;;;;3.40;3.10;;;;;;;10.36;93.22;101492.88;4981123;28;20055;-75
2023/01/02 10:25:22;;;;;;;4.50;3.15;;;;;;;10.36;94.29;101495.53;4970152;28;20061;-73
2023/01/02 10:28:05;;;;;;;3.55;3.25;;;;;;;10.36;94.75;101500.78;4973791;28;20043;-76
2023/01/02 10:30:45;;;;;;;5.32;3.42;;;;;;;10.35;94.99;101520.13;4975170;28;20043;-74
2023/01/02 10:33:22;;;;;;;4.78;3.85;;;;;;;10.32;94.35;101520.22;4971157;28;20162;-75
2023/01/02 10:35:58;;;;;;;5.18;4.05;;;;;;;10.24;94.03;101521.19;4970994;28;20039;-73
2023/01/02 10:38:36;;;;;;;5.60;3.88;;;;;;;10.20;94.51;101508.09;4978764;28;20051;-75
2023/01/02 10:41:07;;;;;;;5.85;3.90;;;;;;;10.16;94.86;101504.66;4973654;28;20905;-75
2023/01/02 10:43:35;;;;;;;6.32;4.13;;;;;;;10.13;94.24;101512.63;4974692;28;20595;-74
2023/01/02 10:46:03;;;;;;;7.53;4.00;;;;;;;10.17;93.88;101510.81;4970409;28;20857;-76
2023/01/02 10:48:36;;;;;;;4.55;3.30;;;;;;;10.18;93.38;101507.25;4975296;28;20047;-76
2023/01/02 10:51:11;;;;;;;5.60;3.88;;;;;;;10.21;93.29;101512.47;4973998;28;20048;-75
2023/01/02 10:53:38;;;;;;;5.68;3.67;;;;;;;10.29;93.67;101523.75;4975283;28;20106;-77
2023/01/02 10:56:17;;;;;;;7.53;3.90;;;;;;;10.34;94.04;101523.66;4974626;28;20044;-76
2023/01/02 10:58:47;;;;;;;12.68;5.93;;;;;;;10.36;94.02;101521.88;4980216;28;20043;-75
2023/01/02 11:01:19;;;;;;;8.63;4.93;;;;;;;10.37;93.95;101529.81;4980270;28;20047;-74
2023/01/02 11:04:11;;;;;;;7.00;3.55;;;;;;;10.36;93.37;101532.41;4982048;28;20046;-72
2023/01/02 11:06:52;;;;;;;5.63;3.40;;;;;;;10.35;92.56;101542.09;4974144;28;20039;-75
2023/01/02 11:09:35;;;;;;;5.85;3.60;;;;;;;10.31;92.87;101531.66;4961855;28;20040;-76
2023/01/02 11:12:13;;;;;;;5.57;3.28;;;;;;;10.29;92.79;101529.03;4974377;28;20049;-75
2023/01/02 11:14:40;;;;;;;4.90;3.00;;;;;;;10.27;93.00;101536.13;4980306;28;20077;-75
2023/01/02 11:17:16;;;;;;;6.68;4.60;;;;;;;10.29;93.44;101546.63;4973178;28;20047;-76
2023/01/02 11:19:51;;;;;;;5.38;3.10;;;;;;;10.29;93.56;101549.25;4975882;28;20039;-75
2023/01/02 11:22:23;;;;;;;6.10;3.15;;;;;;;10.29;92.67;101555.38;4981904;28;20090;-76
2023/01/02 11:25:20;;;;;;;5.65;3.08;;;;;;;10.33;92.00;101564.09;4987805;28;20050;-76
2023/01/02 11:27:49;;;;;;;6.55;3.00;;;;;;;10.30;91.20;101572.94;4986751;28;20435;-77
2023/01/02 11:30:38;;;;;;;7.13;3.28;;;;;;;10.33;91.88;101569.34;4964929;28;20043;-74
2023/01/02 11:33:23;;;;;;;5.72;3.17;;;;;;;10.36;92.60;101571.94;4973203;28;20040;-75
2023/01/02 11:36:11;;;;;;;4.65;3.40;;;;;;;10.39;92.99;101579.84;4970839;28;20424;-76
2023/01/02 11:38:57;;;;;;;5.50;3.22;;;;;;;10.44;93.20;101585.91;4975195;28;20063;-76
2023/01/02 11:45:07;;;;;;;;;;;;;;;10.39;92.69;101583.34;4972666;28;20042;-76
2023/01/02 11:47:49;;;;;;;4.50;3.45;;;;;;;10.35;92.33;101586.03;4981771;28;19933;-77
2023/01/02 11:50:29;;;;;;;5.10;3.50;;;;;;;10.33;92.97;101582.53;4986951;28;20053;-78
2023/01/02 11:53:20;;;;;;;4.80;3.78;;;;;;;10.38;93.24;101575.47;4976532;28;20535;-78
2023/01/02 11:56:06;;;;;;;6.30;3.60;;;;;;;10.38;92.15;101571.06;4976960;28;20051;-77
2023/01/02 11:58:54;;;;;;;5.32;3.53;;;;;;;10.37;91.68;101568.44;4979629;28;20042;-76